createdAt,value
2022-09-18T00:01:32.378Z,9.00
2022-09-18T00:04:02.427Z,9.00
2022-09-18T00:06:32.940Z,8.90
2022-09-18T00:09:01.573Z,8.80
2022-09-18T00:11:33.508Z,8.70
2022-09-18T00:14:00.512Z,8.60
2022-09-18T00:16:27.619Z,8.50
2022-09-18T00:18:54.640Z,8.50
2022-09-18T00:21:24.699Z,8.50
2022-09-18T00:23:54.744Z,8.40
2022-09-18T00:26:22.129Z,8.40
2022-09-18T00:28:49.326Z,8.30
2022-09-18T00:31:19.825Z,8.20
2022-09-18T00:33:47.264Z,8.20
2022-09-18T00:36:16.856Z,8.20
2022-09-18T00:38:44.886Z,8.20
2022-09-18T00:41:18.608Z,8.20
2022-09-18T00:43:45.622Z,8.10
2022-09-18T00:46:29.711Z,8.10
2022-09-18T00:48:57.665Z,8.00
2022-09-18T00:51:25.935Z,8.00
2022-09-18T00:54:41.873Z,8.10
2022-09-18T00:57:12.864Z,8.10
2022-09-18T00:59:45.513Z,8.20
2022-09-18T01:02:12.804Z,8.20
2022-09-18T01:04:39.852Z,8.30
2022-09-18T01:07:29.558Z,8.30
2022-09-18T01:10:18.241Z,8.30
2022-09-18T01:12:59.985Z,8.30
2022-09-18T01:15:42.244Z,8.40
2022-09-18T01:18:36.350Z,8.40
2022-09-18T01:21:18.912Z,8.50
2022-09-18T01:24:22.958Z,8.50
2022-09-18T01:27:24.689Z,8.50
2022-09-18T01:30:12.171Z,8.50
2022-09-18T01:32:52.457Z,8.50
2022-09-18T01:35:47.180Z,8.40
2022-09-18T01:38:29.071Z,8.30
2022-09-18T01:41:06.164Z,8.30
2022-09-18T01:43:35.098Z,8.30
2022-09-18T01:46:08.916Z,8.20
2022-09-18T01:48:40.963Z,8.00
2022-09-18T01:51:15.890Z,8.00
2022-09-18T01:53:48.741Z,8.00
2022-09-18T01:56:28.328Z,7.90
2022-09-18T01:58:58.389Z,7.80
2022-09-18T02:01:29.791Z,7.80
2022-09-18T02:04:01.855Z,7.80
2022-09-18T02:06:36.427Z,7.80
2022-09-18T02:09:05.276Z,7.70
2022-09-18T02:11:34.603Z,7.70
2022-09-18T02:14:25.923Z,7.70
2022-09-18T02:17:06.504Z,7.50
2022-09-18T02:19:49.330Z,7.50
2022-09-18T02:22:21.450Z,7.40
2022-09-18T02:24:52.118Z,7.40
2022-09-18T02:27:20.703Z,7.30
2022-09-18T02:29:48.681Z,7.30
2022-09-18T02:32:18.924Z,7.20
2022-09-18T02:34:46.089Z,7.20
2022-09-18T02:38:00.250Z,7.20
2022-09-18T02:40:44.783Z,7.10
2022-09-18T02:43:14.586Z,7.10
2022-09-18T02:46:08.421Z,7.00
2022-09-18T02:48:51.054Z,7.00
2022-09-18T02:51:28.114Z,6.90
2022-09-18T02:54:37.896Z,6.90
2022-09-18T02:57:20.837Z,6.80
2022-09-18T02:59:55.771Z,6.90
2022-09-18T03:02:23.706Z,6.90
2022-09-18T03:04:51.427Z,6.80
2022-09-18T03:07:19.003Z,6.90
2022-09-18T03:09:46.008Z,6.90
2022-09-18T03:12:13.396Z,6.90
2022-09-18T03:14:40.368Z,7.00
2022-09-18T03:17:07.374Z,6.90
2022-09-18T03:19:34.325Z,6.90
2022-09-18T03:22:01.742Z,6.80
2022-09-18T03:24:28.779Z,6.80
2022-09-18T03:26:56.419Z,6.80
2022-09-18T03:29:23.385Z,6.80
2022-09-18T03:31:50.416Z,6.80
2022-09-18T03:34:20.080Z,6.80
2022-09-18T03:36:49.822Z,6.80
2022-09-18T03:39:18.344Z,6.80
2022-09-18T03:41:45.350Z,6.80
2022-09-18T03:44:12.355Z,6.90
2022-09-18T03:46:39.495Z,6.80
2022-09-18T03:49:06.498Z,6.80
2022-09-18T03:51:33.739Z,6.80
2022-09-18T03:54:01.324Z,6.80
2022-09-18T03:56:28.362Z,6.80
2022-09-18T03:58:55.475Z,6.80
2022-09-18T04:01:22.521Z,6.90
2022-09-18T04:03:50.177Z,6.90
2022-09-18T04:06:19.615Z,6.90
2022-09-18T04:08:46.660Z,6.90
2022-09-18T04:11:13.672Z,6.90
2022-09-18T04:13:40.726Z,6.90
2022-09-18T04:16:07.796Z,6.90
2022-09-18T04:18:34.941Z,6.80
2022-09-18T04:21:01.960Z,6.80
2022-09-18T04:23:28.920Z,6.80
2022-09-18T04:25:55.906Z,6.80
2022-09-18T04:28:25.677Z,6.80
2022-09-18T04:30:52.636Z,6.70
2022-09-18T04:33:19.664Z,6.70
2022-09-18T04:35:46.598Z,6.60
2022-09-18T04:38:13.595Z,6.60
2022-09-18T04:40:40.857Z,6.60
2022-09-18T04:43:10.377Z,6.60
2022-09-18T04:45:37.531Z,6.50
2022-09-18T04:48:04.641Z,6.50
2022-09-18T04:50:31.615Z,6.50
2022-09-18T04:52:58.578Z,6.50
2022-09-18T04:55:25.776Z,6.50
2022-09-18T04:57:54.635Z,6.50
2022-09-18T05:00:21.822Z,6.50
2022-09-18T05:02:49.225Z,6.50
2022-09-18T05:05:16.297Z,6.40
2022-09-18T05:07:44.575Z,6.50
2022-09-18T05:10:11.684Z,6.50
2022-09-18T05:12:44.046Z,6.50
2022-09-18T05:15:12.042Z,6.50
2022-09-18T05:17:41.964Z,6.60
2022-09-18T05:20:10.869Z,6.60
2022-09-18T05:22:38.563Z,6.60
2022-09-18T05:25:06.013Z,6.70
2022-09-18T05:27:33.901Z,6.70
2022-09-18T05:30:01.314Z,6.80
2022-09-18T05:32:28.741Z,6.80
2022-09-18T05:34:58.531Z,6.80
2022-09-18T05:37:25.523Z,6.90
2022-09-18T05:39:54.977Z,6.90
2022-09-18T05:42:22.181Z,7.00
2022-09-18T05:44:49.322Z,7.10
2022-09-18T05:47:16.362Z,7.10
2022-09-18T05:49:43.786Z,7.20
2022-09-18T05:52:12.253Z,7.30
2022-09-18T05:54:39.780Z,7.30
2022-09-18T05:57:06.755Z,7.40
2022-09-18T05:59:36.227Z,7.50
2022-09-18T06:02:04.730Z,7.50
2022-09-18T06:04:31.910Z,7.70
2022-09-18T06:07:01.766Z,7.70
2022-09-18T06:09:30.656Z,7.90
2022-09-18T06:11:58.422Z,7.90
2022-09-18T06:14:25.610Z,8.00
2022-09-18T06:16:52.612Z,8.10
2022-09-18T06:19:19.628Z,8.20
2022-09-18T06:21:46.644Z,8.30
2022-09-18T06:24:17.239Z,8.30
2022-09-18T06:26:45.336Z,8.40
2022-09-18T06:29:12.463Z,8.50
2022-09-18T06:31:39.612Z,8.70
2022-09-18T06:34:08.908Z,8.80
2022-09-18T06:36:35.967Z,9.20
2022-09-18T06:39:03.349Z,9.60
2022-09-18T06:41:31.775Z,10.20
2022-09-18T06:44:01.659Z,10.80
2022-09-18T06:46:28.697Z,11.30
2022-09-18T06:48:55.789Z,11.70
2022-09-18T06:51:22.794Z,12.10
2022-09-18T06:53:50.865Z,12.50
2022-09-18T06:56:17.812Z,13.00
2022-09-18T06:58:45.280Z,13.30
2022-09-18T07:01:12.425Z,13.50
2022-09-18T07:03:39.437Z,13.70
2022-09-18T07:06:10.074Z,14.20
2022-09-18T07:08:38.178Z,14.80
2022-09-18T07:11:05.296Z,15.20
2022-09-18T07:13:33.256Z,15.40
2022-09-18T07:16:00.726Z,16.10
2022-09-18T07:18:28.232Z,16.40
2022-09-18T07:20:55.431Z,16.80
2022-09-18T07:23:22.498Z,16.90
2022-09-18T07:25:49.618Z,17.50
2022-09-18T07:28:16.789Z,17.70
2022-09-18T07:30:44.132Z,18.00
2022-09-18T07:33:11.203Z,18.50
2022-09-18T07:35:38.197Z,19.20
2022-09-18T07:38:06.436Z,19.00
2022-09-18T07:40:34.047Z,19.10
2022-09-18T07:43:07.077Z,19.50
2022-09-18T07:45:35.292Z,19.60
2022-09-18T07:48:04.165Z,19.80
2022-09-18T07:50:31.429Z,19.80
2022-09-18T07:53:00.142Z,19.40
2022-09-18T07:55:27.771Z,19.60
2022-09-18T07:57:57.776Z,19.00
2022-09-18T08:00:26.417Z,17.40
2022-09-18T08:03:11.839Z,16.30
2022-09-18T08:05:40.167Z,15.50
2022-09-18T08:08:09.888Z,15.30
2022-09-18T08:10:37.295Z,14.80
2022-09-18T08:13:05.625Z,14.50
2022-09-18T08:15:34.157Z,14.50
2022-09-18T08:18:01.776Z,14.60
2022-09-18T08:20:30.278Z,14.90
2022-09-18T08:22:58.669Z,14.80
2022-09-18T08:25:27.777Z,15.00
2022-09-18T08:27:55.158Z,14.90
2022-09-18T08:30:24.145Z,15.40
2022-09-18T08:32:51.374Z,15.60
2022-09-18T08:35:18.464Z,16.10
2022-09-18T08:37:49.295Z,17.10
2022-09-18T08:40:18.404Z,18.10
2022-09-18T08:43:42.444Z,19.00
2022-09-18T08:46:15.052Z,19.50
2022-09-18T08:48:49.944Z,19.10
2022-09-18T08:51:32.074Z,18.10
2022-09-18T08:54:13.699Z,17.10
2022-09-18T08:56:40.981Z,16.10
2022-09-18T08:59:19.607Z,15.90
2022-09-18T09:02:25.342Z,16.00
2022-09-18T09:04:58.718Z,16.10
2022-09-18T09:08:03.057Z,16.10
2022-09-18T09:10:43.412Z,15.60
2022-09-18T09:13:49.573Z,15.30
2022-09-18T09:16:38.478Z,14.90
2022-09-18T09:19:47.469Z,14.80
2022-09-18T09:22:28.187Z,14.80
2022-09-18T09:25:13.192Z,14.80
2022-09-18T09:27:45.170Z,15.20
2022-09-18T09:30:14.010Z,15.40
2022-09-18T09:33:06.731Z,15.50
2022-09-18T09:35:55.902Z,15.90
2022-09-18T09:38:30.141Z,16.40
2022-09-18T09:40:58.649Z,17.00
2022-09-18T09:43:39.178Z,17.50
2022-09-18T09:46:50.809Z,17.40
2022-09-18T09:49:27.448Z,17.10
2022-09-18T09:52:01.527Z,17.00
2022-09-18T09:54:31.855Z,17.00
2022-09-18T09:57:28.472Z,16.80
2022-09-18T10:00:18.112Z,16.80
2022-09-18T10:03:06.363Z,16.70
2022-09-18T10:06:08.147Z,16.50
2022-09-18T10:08:56.638Z,16.00
2022-09-18T10:11:24.205Z,15.90
2022-09-18T10:14:03.148Z,16.20
2022-09-18T10:16:33.703Z,16.60
2022-09-18T10:19:01.593Z,16.60
2022-09-18T10:21:34.911Z,16.70
2022-09-18T10:24:16.664Z,16.80
2022-09-18T10:26:58.621Z,16.70
2022-09-18T10:29:25.630Z,16.30
2022-09-18T10:31:58.599Z,16.50
2022-09-18T10:34:40.959Z,17.00
2022-09-18T10:37:36.945Z,17.80
2022-09-18T10:40:07.744Z,18.70
2022-09-18T10:42:37.049Z,20.00
2022-09-18T10:45:06.857Z,20.40
2022-09-18T10:47:36.115Z,19.80
2022-09-18T10:50:23.433Z,19.10
2022-09-18T10:52:54.067Z,18.20
2022-09-18T10:55:26.575Z,17.50
2022-09-18T10:58:15.844Z,17.10
2022-09-18T11:00:53.168Z,16.60
2022-09-18T11:03:25.383Z,16.20
2022-09-18T11:06:02.662Z,15.80
2022-09-18T11:08:35.352Z,15.60
2022-09-18T11:11:21.245Z,15.40
2022-09-18T11:14:06.054Z,15.30
2022-09-18T11:16:54.862Z,15.20
2022-09-18T11:19:38.112Z,15.10
2022-09-18T11:22:27.832Z,15.20
2022-09-18T11:25:08.011Z,15.40
2022-09-18T11:27:46.880Z,15.40
2022-09-18T11:30:26.206Z,15.40
2022-09-18T11:33:19.694Z,15.20
2022-09-18T11:35:52.921Z,15.30
2022-09-18T11:38:21.150Z,15.60
2022-09-18T11:40:51.865Z,15.70
2022-09-18T11:43:30.829Z,15.90
2022-09-18T11:46:22.856Z,16.10
2022-09-18T11:49:04.610Z,16.20
2022-09-18T11:51:56.908Z,16.40
2022-09-18T11:54:44.037Z,16.60
2022-09-18T11:57:19.120Z,16.60
2022-09-18T11:59:58.917Z,16.70
2022-09-18T12:03:00.427Z,16.90
2022-09-18T12:06:15.874Z,17.20
2022-09-18T12:08:53.999Z,17.80
2022-09-18T12:11:34.393Z,17.60
2022-09-18T12:14:25.315Z,18.00
2022-09-18T12:16:56.276Z,18.30
2022-09-18T12:19:48.164Z,17.90
2022-09-18T12:22:24.550Z,17.30
2022-09-18T12:24:51.981Z,17.00
2022-09-18T12:27:40.871Z,16.50
2022-09-18T12:30:38.498Z,16.20
2022-09-18T12:33:22.290Z,16.20
2022-09-18T12:36:32.423Z,16.30
2022-09-18T12:39:45.522Z,16.20
2022-09-18T12:42:29.680Z,16.40
2022-09-18T12:45:24.607Z,16.60
2022-09-18T12:47:51.716Z,17.30
2022-09-18T12:50:18.696Z,17.90
2022-09-18T12:53:18.266Z,17.70
2022-09-18T12:56:16.484Z,17.40
2022-09-18T12:59:03.397Z,17.40
2022-09-18T13:01:48.876Z,17.00
2022-09-18T13:04:44.938Z,16.90
2022-09-18T13:07:19.034Z,16.50
2022-09-18T13:09:52.148Z,16.30
2022-09-18T13:12:44.809Z,16.00
2022-09-18T13:15:27.298Z,15.90
2022-09-18T13:18:15.939Z,15.90
2022-09-18T13:20:45.547Z,15.90
2022-09-18T13:23:28.483Z,15.90
2022-09-18T13:25:57.333Z,16.00
2022-09-18T13:28:25.935Z,15.90
2022-09-18T13:31:15.399Z,15.70
2022-09-18T13:34:13.192Z,15.50
2022-09-18T13:36:42.638Z,15.20
2022-09-18T13:39:21.777Z,15.00
2022-09-18T13:41:53.419Z,15.00
2022-09-18T13:44:24.828Z,15.00
2022-09-18T13:46:54.863Z,15.00
2022-09-18T13:49:34.943Z,15.20
2022-09-18T13:52:34.157Z,15.70
2022-09-18T13:55:03.400Z,16.50
2022-09-18T13:57:31.647Z,17.10
2022-09-18T14:00:09.441Z,17.30
2022-09-18T14:02:40.975Z,17.30
2022-09-18T14:05:10.360Z,16.90
2022-09-18T14:07:37.363Z,16.50
2022-09-18T14:10:20.441Z,16.30
2022-09-18T14:13:24.723Z,16.20
2022-09-18T14:16:23.289Z,16.80
2022-09-18T14:18:54.994Z,17.30
2022-09-18T14:21:27.052Z,17.30
2022-09-18T14:24:18.400Z,17.10
2022-09-18T14:26:47.142Z,16.50
2022-09-18T14:29:19.564Z,16.10
2022-09-18T14:31:55.421Z,15.80
2022-09-18T14:34:40.943Z,15.40
2022-09-18T14:37:27.671Z,15.30
2022-09-18T14:39:56.611Z,15.20
2022-09-18T14:42:40.741Z,15.00
2022-09-18T14:45:14.032Z,15.00
2022-09-18T14:47:43.515Z,15.00
2022-09-18T14:50:32.120Z,15.00
2022-09-18T14:53:02.064Z,15.30
2022-09-18T14:55:42.078Z,15.60
2022-09-18T14:58:15.704Z,15.90
2022-09-18T15:00:44.153Z,15.80
2022-09-18T15:03:20.953Z,15.50
2022-09-18T15:05:52.384Z,15.30
2022-09-18T15:08:26.504Z,15.10
2022-09-18T15:10:56.614Z,15.00
2022-09-18T15:13:23.859Z,14.80
2022-09-18T15:16:04.392Z,14.70
2022-09-18T15:18:42.349Z,14.60
2022-09-18T15:21:33.078Z,14.40
2022-09-18T15:24:02.506Z,14.20
2022-09-18T15:26:32.874Z,14.20
2022-09-18T15:29:03.064Z,14.00
2022-09-18T15:31:32.719Z,13.90
2022-09-18T15:34:12.207Z,13.80
2022-09-18T15:36:41.244Z,13.70
2022-09-18T15:39:27.576Z,13.60
2022-09-18T15:41:54.967Z,13.50
2022-09-18T15:44:40.128Z,13.30
2022-09-18T15:47:25.995Z,13.30
2022-09-18T15:49:53.251Z,13.20
2022-09-18T15:52:40.027Z,13.10
2022-09-18T15:55:10.399Z,13.10
2022-09-18T15:57:39.726Z,13.00
2022-09-18T16:00:10.972Z,13.00
2022-09-18T16:02:39.390Z,12.90
2022-09-18T16:05:15.082Z,12.90
2022-09-18T16:07:53.699Z,12.80
2022-09-18T16:10:39.595Z,12.90
2022-09-18T16:13:26.875Z,12.80
2022-09-18T16:16:11.424Z,12.80
2022-09-18T16:19:07.447Z,12.80
2022-09-18T16:21:40.851Z,12.70
2022-09-18T16:24:25.905Z,12.70
2022-09-18T16:26:52.996Z,12.70
2022-09-18T16:29:22.298Z,12.60
2022-09-18T16:31:49.607Z,12.50
2022-09-18T16:34:26.113Z,12.50
2022-09-18T16:36:55.257Z,12.50
2022-09-18T16:39:24.428Z,12.40
2022-09-18T16:41:52.596Z,12.40
2022-09-18T16:44:20.192Z,12.30
2022-09-18T16:46:51.608Z,12.30
2022-09-18T16:49:35.693Z,12.30
2022-09-18T16:52:03.483Z,12.20
2022-09-18T16:54:30.639Z,12.20
2022-09-18T16:57:05.752Z,12.10
2022-09-18T16:59:33.898Z,12.10
2022-09-18T17:02:04.648Z,12.10
2022-09-18T17:04:35.888Z,12.10
2022-09-18T17:07:03.374Z,12.10
2022-09-18T17:09:32.745Z,12.00
2022-09-18T17:12:00.171Z,12.00
2022-09-18T17:14:27.538Z,12.00
2022-09-18T17:16:54.638Z,12.00
2022-09-18T17:19:22.158Z,11.90
2022-09-18T17:21:49.435Z,11.90
2022-09-18T17:24:17.704Z,11.90
2022-09-18T17:26:44.802Z,11.80
2022-09-18T17:29:14.728Z,11.80
2022-09-18T17:31:41.758Z,11.70
2022-09-18T17:34:08.838Z,11.60
2022-09-18T17:36:40.497Z,11.60
2022-09-18T17:39:09.405Z,11.50
2022-09-18T17:41:36.732Z,11.50
2022-09-18T17:44:04.691Z,11.40
2022-09-18T17:46:31.857Z,11.30
2022-09-18T17:48:59.912Z,11.30
2022-09-18T17:51:29.340Z,11.20
2022-09-18T17:54:02.890Z,11.10
2022-09-18T17:56:31.735Z,11.10
2022-09-18T17:59:07.783Z,11.10
2022-09-18T18:01:43.117Z,11.00
2022-09-18T18:04:10.197Z,11.10
2022-09-18T18:06:37.571Z,11.00
2022-09-18T18:09:07.353Z,11.00
2022-09-18T18:11:34.392Z,10.90
2022-09-18T18:14:01.888Z,10.90
2022-09-18T18:16:31.133Z,10.90
2022-09-18T18:19:01.594Z,10.80
2022-09-18T18:21:30.161Z,10.80
2022-09-18T18:23:57.935Z,10.80
2022-09-18T18:26:26.291Z,10.70
2022-09-18T18:28:55.499Z,10.60
2022-09-18T18:31:25.636Z,10.60
2022-09-18T18:33:55.760Z,10.60
2022-09-18T18:36:24.994Z,10.50
2022-09-18T18:38:55.416Z,10.50
2022-09-18T18:41:23.706Z,10.50
2022-09-18T18:43:55.637Z,10.50
2022-09-18T18:46:27.876Z,10.50
2022-09-18T18:49:00.481Z,10.50
2022-09-18T18:51:29.123Z,10.50
2022-09-18T18:53:56.752Z,10.50
2022-09-18T18:56:24.119Z,10.50
2022-09-18T18:59:00.482Z,10.50
2022-09-18T19:01:29.080Z,10.60
2022-09-18T19:03:59.891Z,10.60
2022-09-18T19:06:27.564Z,10.60
2022-09-18T19:09:00.536Z,10.60
2022-09-18T19:11:30.058Z,10.60
2022-09-18T19:13:57.782Z,10.70
2022-09-18T19:16:26.864Z,10.70
2022-09-18T19:18:56.503Z,10.70
2022-09-18T19:21:23.571Z,10.60
2022-09-18T19:23:56.513Z,10.60
2022-09-18T19:26:26.451Z,10.60
2022-09-18T19:28:56.182Z,10.60
2022-09-18T19:31:23.970Z,10.70
2022-09-18T19:33:52.662Z,10.70
2022-09-18T19:36:26.401Z,10.60
2022-09-18T19:39:00.797Z,10.60
2022-09-18T19:41:52.450Z,10.60
2022-09-18T19:44:28.585Z,10.50
2022-09-18T19:47:00.271Z,10.50
2022-09-18T19:49:37.209Z,10.50
2022-09-18T19:52:07.777Z,10.50
2022-09-18T19:54:34.818Z,10.50
2022-09-18T19:57:01.829Z,10.40
2022-09-18T19:59:28.816Z,10.40
2022-09-18T20:01:56.136Z,10.40
2022-09-18T20:04:23.143Z,10.40
2022-09-18T20:06:50.078Z,10.40
2022-09-18T20:09:17.077Z,10.40
2022-09-18T20:11:48.042Z,10.40
2022-09-18T20:14:16.193Z,10.50
2022-09-18T20:16:43.248Z,10.50
2022-09-18T20:19:10.180Z,10.50
2022-09-18T20:21:37.189Z,10.50
2022-09-18T20:24:04.251Z,10.50
2022-09-18T20:26:31.468Z,10.50
2022-09-18T20:28:58.466Z,10.50
2022-09-18T20:31:26.010Z,10.50
2022-09-18T20:33:59.555Z,10.40
2022-09-18T20:36:27.036Z,10.50
2022-09-18T20:38:58.070Z,10.50
2022-09-18T20:41:28.124Z,10.40
2022-09-18T20:43:58.033Z,10.40
2022-09-18T20:46:25.232Z,10.50
2022-09-18T20:48:55.279Z,10.40
2022-09-18T20:51:25.204Z,10.50
2022-09-18T20:53:56.218Z,10.50
2022-09-18T20:56:30.366Z,10.50
2022-09-18T20:58:57.729Z,10.50
2022-09-18T21:01:27.601Z,10.40
2022-09-18T21:03:57.410Z,10.40
2022-09-18T21:06:27.154Z,10.50
2022-09-18T21:08:55.675Z,10.50
2022-09-18T21:11:28.422Z,10.40
2022-09-18T21:13:58.006Z,10.50
2022-09-18T21:16:27.116Z,10.40
2022-09-18T21:19:00.392Z,10.40
2022-09-18T21:21:30.945Z,10.40
2022-09-18T21:24:04.332Z,10.40
2022-09-18T21:26:35.933Z,10.30
2022-09-18T21:29:22.897Z,10.20
2022-09-18T21:31:52.258Z,10.20
2022-09-18T21:34:26.977Z,10.10
2022-09-18T21:36:58.594Z,10.10
2022-09-18T21:39:28.319Z,10.00
2022-09-18T21:42:00.231Z,10.00
2022-09-18T21:44:28.969Z,10.10
2022-09-18T21:47:07.220Z,10.10
2022-09-18T21:49:34.509Z,10.20
2022-09-18T21:52:04.881Z,10.20
2022-09-18T21:54:32.340Z,10.30
2022-09-18T21:57:00.244Z,10.20
2022-09-18T21:59:31.440Z,10.20
2022-09-18T22:02:00.375Z,10.20
2022-09-18T22:04:29.691Z,10.10
2022-09-18T22:07:00.394Z,10.10
2022-09-18T22:09:38.694Z,10.10
2022-09-18T22:12:07.185Z,10.10
2022-09-18T22:14:36.003Z,10.00
2022-09-18T22:17:06.618Z,10.00
2022-09-18T22:19:35.371Z,10.00
2022-09-18T22:22:04.166Z,10.00
2022-09-18T22:24:31.126Z,10.10
2022-09-18T22:27:03.146Z,10.00
2022-09-18T22:29:32.286Z,10.00
2022-09-18T22:31:59.828Z,10.00
2022-09-18T22:34:29.047Z,10.00
2022-09-18T22:36:56.600Z,10.00
2022-09-18T22:39:23.874Z,10.00
2022-09-18T22:41:51.624Z,10.00
2022-09-18T22:44:21.465Z,10.00
2022-09-18T22:46:49.711Z,10.10
2022-09-18T22:49:17.975Z,10.00
2022-09-18T22:51:45.879Z,10.00
2022-09-18T22:54:14.004Z,10.10
2022-09-18T22:56:44.848Z,10.10
2022-09-18T22:59:17.045Z,10.00
2022-09-18T23:01:56.562Z,9.90
2022-09-18T23:04:28.050Z,9.90
2022-09-18T23:06:56.364Z,9.80
2022-09-18T23:09:23.491Z,9.80
2022-09-18T23:11:54.257Z,9.80
2022-09-18T23:14:24.006Z,9.80
2022-09-18T23:16:51.276Z,9.80
2022-09-18T23:19:26.076Z,9.80
2022-09-18T23:21:54.011Z,9.80
2022-09-18T23:24:22.464Z,9.70
2022-09-18T23:26:51.104Z,9.70
2022-09-18T23:29:21.017Z,9.70
2022-09-18T23:31:50.997Z,9.70
2022-09-18T23:34:20.888Z,9.70
2022-09-18T23:36:50.732Z,9.70
2022-09-18T23:39:29.559Z,9.60
2022-09-18T23:41:58.895Z,9.60
2022-09-18T23:44:28.703Z,9.60
2022-09-18T23:46:56.035Z,9.70
2022-09-18T23:49:23.949Z,9.70
2022-09-18T23:51:55.282Z,9.70
2022-09-18T23:54:24.901Z,9.60
2022-09-18T23:56:52.498Z,9.60
2022-09-18T23:59:23.001Z,9.60
